createdAt,value
2018-05-25T00:00:18.020Z,16.41
2018-05-25T00:02:46.253Z,16.39
2018-05-25T00:05:14.439Z,16.36
2018-05-25T00:07:42.662Z,16.36
2018-05-25T00:10:11.244Z,16.33
2018-05-25T00:12:40.965Z,16.31
2018-05-25T00:15:09.357Z,16.30
2018-05-25T00:17:37.532Z,16.28
2018-05-25T00:20:05.687Z,16.30
2018-05-25T00:22:33.870Z,16.28
2018-05-25T00:25:02.021Z,16.28
2018-05-25T00:27:30.195Z,16.28
2018-05-25T00:29:58.346Z,16.27
2018-05-25T00:32:26.533Z,16.26
2018-05-25T00:34:54.699Z,16.24
2018-05-25T00:37:22.857Z,16.22
2018-05-25T00:39:51.044Z,16.21
2018-05-25T00:42:19.833Z,16.21
2018-05-25T00:44:48.015Z,16.20
2018-05-25T00:47:17.306Z,16.18
2018-05-25T00:49:45.481Z,16.18
2018-05-25T00:52:13.653Z,16.17
2018-05-25T00:54:41.815Z,16.17
2018-05-25T00:57:09.997Z,16.17
2018-05-25T00:59:38.157Z,16.17
2018-05-25T01:02:06.336Z,16.16
2018-05-25T01:04:34.497Z,16.18
2018-05-25T01:07:02.680Z,16.16
2018-05-25T01:09:30.839Z,16.13
2018-05-25T01:11:59.020Z,16.08
2018-05-25T01:14:27.197Z,16.02
2018-05-25T01:16:55.398Z,15.99
2018-05-25T01:19:24.488Z,15.96
2018-05-25T01:21:52.663Z,15.95
2018-05-25T01:26:55.370Z,15.89
2018-05-25T01:29:24.546Z,15.84
2018-05-25T01:31:52.716Z,15.80
2018-05-25T01:34:26.900Z,15.78
2018-05-25T01:36:55.046Z,15.75
2018-05-25T01:39:30.117Z,15.72
2018-05-25T01:41:58.252Z,15.68
2018-05-25T01:44:26.438Z,15.67
2018-05-25T01:47:01.626Z,15.66
2018-05-25T01:49:29.806Z,15.66
2018-05-25T01:51:57.958Z,15.64
2018-05-25T01:54:26.122Z,15.61
2018-05-25T01:56:54.863Z,15.60
2018-05-25T01:59:23.026Z,15.59
2018-05-25T02:01:51.192Z,15.56
2018-05-25T02:04:19.386Z,15.55
2018-05-25T02:06:47.557Z,15.54
2018-05-25T02:09:19.582Z,15.54
2018-05-25T02:11:47.760Z,15.54
2018-05-25T02:14:15.904Z,15.52
2018-05-25T02:16:44.188Z,15.50
2018-05-25T02:19:12.380Z,15.48
2018-05-25T02:21:40.560Z,15.45
2018-05-25T02:24:12.290Z,15.40
2018-05-25T02:26:40.756Z,15.37
2018-05-25T02:29:08.940Z,15.37
2018-05-25T02:31:37.106Z,15.37
2018-05-25T02:34:05.282Z,15.35
2018-05-25T02:36:33.428Z,15.32
2018-05-25T02:39:01.618Z,15.31
2018-05-25T02:41:29.788Z,15.27
2018-05-25T02:43:57.976Z,15.23
2018-05-25T02:46:26.112Z,15.22
2018-05-25T02:48:54.294Z,15.21
2018-05-25T02:51:22.462Z,15.20
2018-05-25T02:53:50.627Z,15.20
2018-05-25T02:56:18.796Z,15.19
2018-05-25T02:58:46.976Z,15.16
2018-05-25T03:01:15.141Z,15.14
2018-05-25T03:03:43.340Z,15.13
2018-05-25T03:06:11.506Z,15.10
2018-05-25T03:08:39.684Z,15.09
2018-05-25T03:11:09.880Z,15.07
2018-05-25T03:13:38.044Z,15.03
2018-05-25T03:16:06.232Z,14.94
2018-05-25T03:18:44.196Z,14.88
2018-05-25T03:21:12.362Z,14.88
2018-05-25T03:23:48.728Z,14.88
2018-05-25T03:26:16.914Z,14.86
2018-05-25T03:28:45.066Z,14.83
2018-05-25T03:31:19.424Z,14.76
2018-05-25T03:33:47.592Z,14.72
2018-05-25T03:36:18.954Z,14.71
2018-05-25T03:38:47.156Z,14.69
2018-05-25T03:41:15.336Z,14.67
2018-05-25T03:43:43.528Z,14.64
2018-05-25T03:46:11.692Z,14.60
2018-05-25T03:48:39.866Z,14.55
2018-05-25T03:51:08.054Z,14.52
2018-05-25T03:53:42.445Z,14.51
2018-05-25T03:56:11.359Z,14.54
2018-05-25T03:58:51.399Z,14.55
2018-05-25T04:01:33.126Z,14.56
2018-05-25T04:04:04.496Z,14.54
2018-05-25T04:06:32.710Z,14.53
2018-05-25T04:09:00.859Z,14.55
2018-05-25T04:11:29.048Z,14.58
2018-05-25T04:13:57.205Z,14.62
2018-05-25T04:16:25.381Z,14.65
2018-05-25T04:18:53.543Z,14.58
2018-05-25T04:21:21.725Z,14.66
2018-05-25T04:23:54.142Z,14.74
2018-05-25T04:26:22.309Z,14.63
2018-05-25T04:28:50.673Z,14.57
2018-05-25T04:31:18.828Z,14.67
2018-05-25T04:33:46.997Z,14.74
2018-05-25T04:36:15.167Z,14.81
2018-05-25T04:38:43.320Z,14.91
2018-05-25T04:41:19.739Z,14.99
2018-05-25T04:43:47.898Z,15.05
2018-05-25T04:46:22.349Z,15.06
2018-05-25T04:48:50.485Z,15.05
2018-05-25T04:51:18.659Z,15.02
2018-05-25T04:53:46.840Z,15.07
2018-05-25T04:56:16.786Z,15.12
2018-05-25T04:58:44.958Z,15.17
2018-05-25T05:01:13.157Z,15.17
2018-05-25T05:03:41.341Z,15.18
2018-05-25T05:06:09.503Z,15.18
2018-05-25T05:08:37.685Z,15.22
2018-05-25T05:11:05.861Z,15.23
2018-05-25T05:13:34.055Z,15.26
2018-05-25T05:16:02.250Z,15.33
2018-05-25T05:18:30.425Z,15.44
2018-05-25T05:20:58.600Z,15.53
2018-05-25T05:23:33.199Z,15.54
2018-05-25T05:26:01.356Z,15.53
2018-05-25T05:28:29.519Z,15.58
2018-05-25T05:30:57.715Z,15.61
2018-05-25T05:33:25.896Z,15.66
2018-05-25T05:35:54.084Z,15.72
2018-05-25T05:38:22.249Z,15.76
2018-05-25T05:40:50.469Z,15.79
2018-05-25T05:43:18.592Z,15.82
2018-05-25T05:45:46.781Z,15.87
2018-05-25T05:48:14.943Z,15.92
2018-05-25T05:50:51.621Z,15.91
2018-05-25T05:53:19.794Z,15.92
2018-05-25T05:55:47.973Z,15.98
2018-05-25T05:58:16.125Z,16.04
2018-05-25T06:00:45.754Z,16.09
2018-05-25T06:03:26.927Z,16.10
2018-05-25T06:05:55.095Z,16.13
2018-05-25T06:08:24.151Z,16.18
2018-05-25T06:10:52.320Z,16.16
2018-05-25T06:13:28.799Z,16.20
2018-05-25T06:15:56.974Z,16.23
2018-05-25T06:18:25.175Z,16.22
2018-05-25T06:20:53.361Z,16.20
2018-05-25T06:23:21.552Z,16.15
2018-05-25T06:25:49.785Z,16.28
2018-05-25T06:28:17.966Z,16.50
2018-05-25T06:30:46.153Z,16.55
2018-05-25T06:33:20.800Z,16.57
2018-05-25T06:35:48.966Z,16.63
2018-05-25T06:38:17.165Z,16.80
2018-05-25T06:40:46.157Z,16.90
2018-05-25T06:43:14.316Z,16.86
2018-05-25T06:45:42.483Z,17.02
2018-05-25T06:48:10.653Z,17.10
2018-05-25T06:50:38.921Z,17.16
2018-05-25T06:55:45.960Z,17.34
2018-05-25T06:58:14.873Z,17.33
2018-05-25T07:00:44.608Z,17.26
2018-05-25T07:03:15.165Z,17.18
2018-05-25T07:05:43.344Z,17.27
2018-05-25T07:08:11.533Z,17.37
2018-05-25T07:10:39.716Z,17.48
2018-05-25T07:13:07.884Z,17.56
2018-05-25T07:15:44.195Z,17.62
2018-05-25T07:18:28.802Z,17.66
2018-05-25T07:20:57.358Z,17.67
2018-05-25T07:23:25.527Z,17.71
2018-05-25T07:25:53.676Z,17.80
2018-05-25T07:28:21.861Z,17.86
2018-05-25T07:30:51.679Z,17.96
2018-05-25T07:33:25.770Z,17.95
2018-05-25T07:35:53.904Z,18.06
2018-05-25T07:38:22.092Z,18.10
2018-05-25T07:40:54.097Z,18.15
2018-05-25T07:43:29.974Z,18.23
2018-05-25T07:45:58.136Z,18.33
2018-05-25T07:48:26.333Z,18.36
2018-05-25T07:50:54.484Z,18.42
2018-05-25T07:53:23.988Z,18.42
2018-05-25T07:55:53.474Z,18.44
2018-05-25T07:58:21.666Z,18.53
2018-05-25T08:00:49.866Z,18.57
2018-05-25T08:03:18.025Z,18.66
2018-05-25T08:05:53.107Z,18.71
2018-05-25T08:08:21.265Z,18.66
2018-05-25T08:10:49.437Z,18.82
2018-05-25T08:13:17.592Z,18.93
2018-05-25T08:15:46.423Z,18.99
2018-05-25T08:18:24.213Z,19.06
2018-05-25T08:20:52.396Z,19.25
2018-05-25T08:23:20.597Z,19.27
2018-05-25T08:25:48.790Z,19.32
2018-05-25T08:28:16.966Z,19.42
2018-05-25T08:30:45.128Z,19.52
2018-05-25T08:33:20.060Z,19.64
2018-05-25T08:35:48.236Z,19.86
2018-05-25T08:38:16.678Z,20.05
2018-05-25T08:40:44.847Z,20.20
2018-05-25T08:43:13.072Z,20.33
2018-05-25T08:45:42.765Z,20.44
2018-05-25T08:48:10.965Z,20.61
2018-05-25T08:50:39.144Z,20.52
2018-05-25T08:53:07.317Z,20.57
2018-05-25T08:55:35.480Z,20.60
2018-05-25T08:58:03.681Z,20.64
2018-05-25T09:00:31.847Z,20.78
2018-05-25T09:03:00.010Z,20.91
2018-05-25T09:05:28.198Z,20.92
2018-05-25T09:07:56.363Z,20.93
2018-05-25T09:10:24.813Z,20.97
2018-05-25T09:12:53.030Z,20.88
2018-05-25T09:15:21.199Z,20.96
2018-05-25T09:17:49.387Z,20.99
2018-05-25T09:20:17.542Z,21.01
2018-05-25T09:22:45.734Z,21.11
2018-05-25T09:25:20.310Z,21.12
2018-05-25T09:27:48.472Z,21.22
2018-05-25T09:30:17.171Z,21.40
2018-05-25T09:32:45.364Z,21.44
2018-05-25T09:35:19.946Z,21.41
2018-05-25T09:37:48.109Z,21.38
2018-05-25T09:40:17.201Z,21.46
2018-05-25T09:42:45.366Z,21.53
2018-05-25T09:45:13.534Z,21.60
2018-05-25T09:47:41.699Z,21.74
2018-05-25T09:50:10.162Z,21.77
2018-05-25T09:52:38.797Z,21.78
2018-05-25T09:55:13.922Z,21.92
2018-05-25T09:57:56.974Z,22.01
2018-05-25T10:00:26.367Z,22.16
2018-05-25T10:02:54.529Z,22.28
2018-05-25T10:05:22.706Z,22.29
2018-05-25T10:07:50.880Z,22.28
2018-05-25T10:10:19.045Z,22.24
2018-05-25T10:12:47.560Z,22.30
2018-05-25T10:15:15.748Z,22.40
2018-05-25T10:17:44.029Z,22.52
2018-05-25T10:20:12.191Z,22.68
2018-05-25T10:22:47.222Z,22.77
2018-05-25T10:25:15.667Z,22.77
2018-05-25T10:27:45.393Z,22.77
2018-05-25T10:30:13.626Z,22.80
2018-05-25T10:32:41.813Z,22.88
2018-05-25T10:35:10.029Z,22.88
2018-05-25T10:37:38.174Z,22.87
2018-05-25T10:40:11.254Z,22.94
2018-05-25T10:42:42.450Z,23.04
2018-05-25T10:45:11.392Z,23.10
2018-05-25T10:47:40.604Z,23.24
2018-05-25T10:50:08.786Z,23.38
2018-05-25T10:52:44.212Z,23.26
2018-05-25T10:55:12.390Z,23.48
2018-05-25T10:57:40.539Z,23.59
2018-05-25T11:00:08.718Z,23.58
2018-05-25T11:02:36.872Z,23.69
2018-05-25T11:05:05.817Z,23.72
2018-05-25T11:07:33.986Z,23.85
2018-05-25T11:10:02.191Z,23.98
2018-05-25T11:12:30.344Z,23.85
2018-05-25T11:14:58.782Z,23.69
2018-05-25T11:17:26.967Z,23.70
2018-05-25T11:19:55.149Z,23.55
2018-05-25T11:22:23.339Z,23.32
2018-05-25T11:24:51.481Z,23.21
2018-05-25T11:27:19.661Z,23.35
2018-05-25T11:29:47.835Z,23.53
2018-05-25T11:32:19.624Z,23.72
2018-05-25T11:34:47.778Z,23.79
2018-05-25T11:37:15.947Z,23.89
2018-05-25T11:39:44.117Z,24.08
2018-05-25T11:42:12.281Z,24.18
2018-05-25T11:44:40.447Z,24.32
2018-05-25T11:47:11.915Z,24.38
2018-05-25T11:49:41.357Z,24.29
2018-05-25T11:52:10.701Z,24.32
2018-05-25T11:54:38.868Z,24.32
2018-05-25T11:57:07.159Z,24.44
2018-05-25T11:59:35.331Z,24.46
2018-05-25T12:02:03.479Z,24.31
2018-05-25T12:04:31.707Z,24.26
2018-05-25T12:06:59.897Z,24.43
2018-05-25T12:09:34.341Z,24.60
2018-05-25T12:12:02.483Z,24.62
2018-05-25T12:14:30.637Z,24.76
2018-05-25T12:16:58.821Z,24.98
2018-05-25T12:19:27.020Z,25.18
2018-05-25T12:21:55.218Z,25.28
2018-05-25T12:24:26.425Z,25.28
2018-05-25T12:26:54.585Z,25.18
2018-05-25T12:29:22.731Z,24.93
2018-05-25T12:31:50.901Z,25.13
2018-05-25T12:34:20.442Z,25.28
2018-05-25T12:36:51.608Z,25.39
2018-05-25T12:39:22.849Z,25.52
2018-05-25T12:41:51.086Z,25.51
2018-05-25T12:44:19.298Z,25.71
2018-05-25T12:46:47.565Z,25.76
2018-05-25T12:49:15.744Z,25.75
2018-05-25T12:51:43.935Z,25.90
2018-05-25T12:54:12.329Z,26.03
2018-05-25T12:56:40.646Z,26.28
2018-05-25T12:59:08.796Z,26.51
2018-05-25T13:01:36.989Z,26.63
2018-05-25T13:04:05.165Z,26.73
2018-05-25T13:06:33.312Z,26.94
2018-05-25T13:09:01.506Z,26.59
2018-05-25T13:11:29.659Z,26.36
2018-05-25T13:13:57.821Z,26.35
2018-05-25T13:16:26.042Z,26.44
2018-05-25T13:18:54.183Z,26.14
2018-05-25T13:21:22.375Z,25.68
2018-05-25T13:23:50.543Z,25.69
2018-05-25T13:26:18.955Z,25.58
2018-05-25T13:28:47.219Z,25.95
2018-05-25T13:31:15.421Z,26.30
2018-05-25T13:33:43.555Z,26.46
2018-05-25T13:36:11.720Z,26.10
2018-05-25T13:38:39.876Z,25.64
2018-05-25T13:41:08.861Z,24.50
2018-05-25T13:43:37.033Z,24.03
2018-05-25T13:46:05.201Z,23.73
2018-05-25T13:48:33.404Z,23.36
2018-05-25T13:51:01.557Z,23.18
2018-05-25T13:53:29.790Z,22.92
2018-05-25T13:55:57.959Z,22.82
2018-05-25T13:58:26.132Z,22.64
2018-05-25T14:00:54.322Z,22.50
2018-05-25T14:03:22.645Z,22.44
2018-05-25T14:05:50.808Z,22.39
2018-05-25T14:08:18.975Z,22.29
2018-05-25T14:10:47.136Z,22.19
2018-05-25T14:13:15.317Z,22.09
2018-05-25T14:15:43.494Z,22.08
2018-05-25T14:18:11.694Z,21.92
2018-05-25T14:20:39.884Z,21.77
2018-05-25T14:23:08.052Z,21.87
2018-05-25T14:25:36.210Z,21.91
2018-05-25T14:28:04.614Z,21.75
2018-05-25T14:30:32.895Z,21.63
2018-05-25T14:33:01.072Z,21.69
2018-05-25T14:35:29.270Z,21.75
2018-05-25T14:37:57.466Z,21.81
2018-05-25T14:40:25.639Z,21.87
2018-05-25T14:42:53.870Z,21.81
2018-05-25T14:45:22.035Z,21.63
2018-05-25T14:47:50.214Z,21.65
2018-05-25T14:50:18.388Z,21.70
2018-05-25T14:52:47.332Z,21.71
2018-05-25T14:55:15.536Z,21.60
2018-05-25T14:57:43.736Z,21.46
2018-05-25T15:00:11.911Z,21.46
2018-05-25T15:02:40.356Z,21.49
2018-05-25T15:05:08.525Z,21.53
2018-05-25T15:07:36.697Z,21.51
2018-05-25T15:10:04.865Z,21.56
2018-05-25T15:12:33.026Z,21.66
2018-05-25T15:15:01.219Z,21.64
2018-05-25T15:17:29.382Z,21.67
2018-05-25T15:19:57.556Z,21.74
2018-05-25T15:22:29.289Z,21.78
2018-05-25T15:24:57.494Z,21.75
2018-05-25T15:27:25.651Z,21.81
2018-05-25T15:29:53.814Z,21.88
2018-05-25T15:32:22.004Z,21.96
2018-05-25T15:34:50.159Z,22.03
2018-05-25T15:37:18.348Z,22.08
2018-05-25T15:39:46.522Z,21.93
2018-05-25T15:42:14.676Z,21.95
2018-05-25T15:44:42.862Z,21.94
2018-05-25T15:47:17.604Z,21.95
2018-05-25T15:49:45.763Z,21.93
2018-05-25T15:52:13.906Z,21.93
2018-05-25T15:54:45.262Z,21.92
2018-05-25T15:57:13.420Z,21.88
2018-05-25T15:59:41.621Z,21.80
2018-05-25T16:02:12.082Z,21.63
2018-05-25T16:04:40.256Z,21.56
2018-05-25T16:07:08.423Z,21.57
2018-05-25T16:09:36.642Z,21.63
2018-05-25T16:12:04.791Z,21.68
2018-05-25T16:14:32.990Z,21.64
2018-05-25T16:17:02.116Z,21.60
2018-05-25T16:19:30.297Z,21.57
2018-05-25T16:21:58.477Z,21.67
2018-05-25T16:24:26.623Z,21.73
2018-05-25T16:26:54.822Z,21.79
2018-05-25T16:29:22.980Z,21.82
2018-05-25T16:31:51.188Z,21.80
2018-05-25T16:34:19.352Z,21.75
2018-05-25T16:36:47.536Z,21.63
2018-05-25T16:39:15.722Z,21.58
2018-05-25T16:41:43.983Z,21.49
2018-05-25T16:44:12.156Z,21.44
2018-05-25T16:46:40.340Z,21.42
2018-05-25T16:49:08.499Z,21.41
2018-05-25T16:51:36.675Z,21.38
2018-05-25T16:54:04.857Z,21.41
2018-05-25T16:56:33.013Z,21.46
2018-05-25T16:59:01.186Z,21.46
2018-05-25T17:01:29.321Z,21.42
2018-05-25T17:03:57.527Z,21.44
2018-05-25T17:06:26.525Z,21.37
2018-05-25T17:08:54.746Z,21.32
2018-05-25T17:11:22.919Z,21.29
2018-05-25T17:13:51.096Z,21.32
2018-05-25T17:16:19.267Z,21.39
2018-05-25T17:18:47.443Z,21.42
2018-05-25T17:21:16.357Z,21.40
2018-05-25T17:23:44.495Z,21.44
2018-05-25T17:26:12.689Z,21.49
2018-05-25T17:28:40.835Z,21.55
2018-05-25T17:31:09.017Z,21.49
2018-05-25T17:33:37.174Z,21.47
2018-05-25T17:36:05.417Z,21.41
2018-05-25T17:38:35.344Z,21.35
2018-05-25T17:41:03.520Z,21.33
2018-05-25T17:43:31.700Z,21.30
2018-05-25T17:45:59.862Z,21.25
2018-05-25T17:48:28.068Z,21.23
2018-05-25T17:50:57.044Z,21.18
2018-05-25T17:53:25.225Z,21.11
2018-05-25T17:55:53.395Z,21.07
2018-05-25T17:58:21.546Z,21.00
2018-05-25T18:00:49.702Z,20.95
2018-05-25T18:03:17.888Z,20.90
2018-05-25T18:05:46.138Z,20.82
2018-05-25T18:08:14.281Z,20.66
2018-05-25T18:10:42.511Z,20.55
2018-05-25T18:13:10.641Z,20.46
2018-05-25T18:15:45.797Z,20.41
2018-05-25T18:18:13.978Z,20.35
2018-05-25T18:20:42.151Z,20.28
2018-05-25T18:23:10.297Z,20.19
2018-05-25T18:25:38.535Z,20.12
2018-05-25T18:28:06.683Z,20.04
2018-05-25T18:30:34.895Z,19.97
2018-05-25T18:33:09.065Z,19.90
2018-05-25T18:35:37.532Z,19.74
2018-05-25T18:38:05.714Z,19.58
2018-05-25T18:40:33.883Z,19.46
2018-05-25T18:43:02.063Z,19.42
2018-05-25T18:45:30.214Z,19.41
2018-05-25T18:47:58.417Z,19.40
2018-05-25T18:50:29.736Z,19.36
2018-05-25T18:52:57.909Z,19.30
2018-05-25T18:55:28.343Z,19.26
2018-05-25T18:57:56.676Z,19.20
2018-05-25T19:00:30.891Z,19.16
2018-05-25T19:02:59.079Z,19.13
2018-05-25T19:05:28.095Z,19.06
2018-05-25T19:07:56.265Z,19.01
2018-05-25T19:10:24.434Z,18.96
2018-05-25T19:12:52.596Z,18.91
2018-05-25T19:15:20.927Z,18.83
2018-05-25T19:17:49.163Z,18.76
2018-05-25T19:20:17.363Z,18.71
2018-05-25T19:22:45.528Z,18.65
2018-05-25T19:25:17.056Z,18.61
2018-05-25T19:27:45.223Z,18.56
2018-05-25T19:30:13.565Z,18.54
2018-05-25T19:32:44.530Z,18.48
2018-05-25T19:35:19.355Z,18.42
2018-05-25T19:37:47.516Z,18.34
2018-05-25T19:40:23.464Z,18.29
2018-05-25T19:42:51.620Z,18.26
2018-05-25T19:45:19.851Z,18.29
2018-05-25T19:47:47.970Z,18.33
2018-05-25T19:50:16.119Z,18.33
2018-05-25T19:52:44.344Z,18.33
2018-05-25T19:55:19.033Z,18.33
2018-05-25T19:57:47.194Z,18.33
2018-05-25T20:00:15.370Z,18.29
2018-05-25T20:02:46.602Z,18.29
2018-05-25T20:05:21.414Z,18.28
2018-05-25T20:07:49.640Z,18.26
2018-05-25T20:10:17.819Z,18.22
2018-05-25T20:12:45.977Z,18.20
2018-05-25T20:15:14.157Z,18.19
2018-05-25T20:17:42.336Z,18.15
2018-05-25T20:20:10.558Z,18.10
2018-05-25T20:22:38.830Z,18.07
2018-05-25T20:25:07.677Z,18.04
2018-05-25T20:27:35.843Z,18.01
2018-05-25T20:30:04.030Z,17.96
2018-05-25T20:32:32.193Z,17.88
2018-05-25T20:35:00.424Z,17.83
2018-05-25T20:37:28.559Z,17.76
2018-05-25T20:39:56.733Z,17.72
2018-05-25T20:42:24.893Z,17.67
2018-05-25T20:44:53.052Z,17.60
2018-05-25T20:47:21.256Z,17.56
2018-05-25T20:49:49.450Z,17.52
2018-05-25T20:52:17.634Z,17.50
2018-05-25T20:54:45.794Z,17.48
2018-05-25T20:57:14.000Z,17.45
2018-05-25T20:59:42.171Z,17.40
2018-05-25T21:02:11.244Z,17.39
2018-05-25T21:04:39.412Z,17.34
2018-05-25T21:07:07.566Z,17.29
2018-05-25T21:09:35.757Z,17.31
2018-05-25T21:12:04.042Z,17.34
2018-05-25T21:14:32.217Z,17.34
2018-05-25T21:17:00.365Z,17.32
2018-05-25T21:19:29.385Z,17.30
2018-05-25T21:21:57.554Z,17.24
2018-05-25T21:24:25.724Z,17.17
2018-05-25T21:26:53.894Z,17.11
2018-05-25T21:29:22.118Z,17.06
2018-05-25T21:31:51.904Z,17.04
2018-05-25T21:34:20.108Z,17.03
2018-05-25T21:36:48.274Z,17.00
2018-05-25T21:39:17.061Z,16.97
2018-05-25T21:41:45.236Z,16.92
2018-05-25T21:44:13.397Z,16.89
2018-05-25T21:46:41.571Z,16.84
2018-05-25T21:49:09.733Z,16.80
2018-05-25T21:51:37.925Z,16.74
2018-05-25T21:54:06.090Z,16.66
2018-05-25T21:56:34.484Z,16.60
2018-05-25T21:59:02.643Z,16.55
2018-05-25T22:01:30.804Z,16.52
2018-05-25T22:03:58.973Z,16.49
2018-05-25T22:06:27.144Z,16.42
2018-05-25T22:08:55.298Z,16.36
2018-05-25T22:11:26.018Z,16.34
2018-05-25T22:13:54.211Z,16.32
2018-05-25T22:16:22.391Z,16.30
2018-05-25T22:18:50.587Z,16.29
2018-05-25T22:21:18.736Z,16.26
2018-05-25T22:23:46.905Z,16.19
2018-05-25T22:26:15.075Z,16.12
2018-05-25T22:28:43.259Z,16.10
2018-05-25T22:31:11.443Z,16.07
2018-05-25T22:33:39.605Z,16.07
2018-05-25T22:36:07.804Z,16.06
2018-05-25T22:38:35.979Z,16.05
2018-05-25T22:41:04.914Z,16.03
2018-05-25T22:43:45.589Z,15.99
2018-05-25T22:46:25.680Z,15.97
2018-05-25T22:49:05.681Z,15.98
2018-05-25T22:51:45.843Z,15.96
2018-05-25T22:54:34.326Z,15.92
2018-05-25T22:57:02.491Z,15.89
2018-05-25T22:59:30.687Z,15.87
2018-05-25T23:01:58.867Z,15.84
2018-05-25T23:04:27.055Z,15.82
2018-05-25T23:06:55.288Z,15.83
2018-05-25T23:09:23.446Z,15.86
2018-05-25T23:11:51.612Z,15.85
2018-05-25T23:14:19.794Z,15.86
2018-05-25T23:16:47.974Z,15.86
2018-05-25T23:19:16.185Z,15.84
2018-05-25T23:21:44.362Z,15.85
2018-05-25T23:24:19.527Z,15.84
2018-05-25T23:26:50.779Z,15.83
2018-05-25T23:29:19.403Z,15.82
2018-05-25T23:31:47.567Z,15.80
2018-05-25T23:34:15.756Z,15.79
2018-05-25T23:36:43.947Z,15.76
2018-05-25T23:39:19.239Z,15.72
2018-05-25T23:41:50.732Z,15.69
2018-05-25T23:44:18.954Z,15.66
2018-05-25T23:46:47.125Z,15.64
2018-05-25T23:49:15.312Z,15.62
2018-05-25T23:51:43.481Z,15.63
2018-05-25T23:54:12.382Z,15.62
2018-05-25T23:56:40.571Z,15.58
2018-05-25T23:59:09.752Z,15.54
